Time;durP1;ratioP1;P1;durP2;ratioP2;P2;SDS_P1;SDS_P2;PMS_P1;PMS_P2;Temp;Humidity;BMP_temperature;BMP_pressure;BME280_temperature;BME280_humidity;BME280_pressure;Samples;Min_cycle;Max_cycle;Signal;HPM_P1;HPM_P2
2022/06/16 00:00:18;;;;;;;4.82;3.33;;;;;;;19.33;51.89;101620.69;3575496;40;20049;-63
2022/06/16 00:02:48;;;;;;;6.78;3.10;;;;;;;19.20;51.67;101597.22;3574053;40;20126;-66
2022/06/16 00:05:21;;;;;;;5.43;3.20;;;;;;;19.20;51.10;101602.66;3578383;40;20330;-63
2022/06/16 00:07:47;;;;;;;4.53;3.33;;;;;;;19.21;50.40;101620.72;3577845;40;20373;-63
2022/06/16 00:10:14;;;;;;;5.38;3.58;;;;;;;19.03;51.27;101586.91;3581335;40;20062;-63
2022/06/16 00:12:40;;;;;;;7.57;3.67;;;;;;;19.19;51.26;101609.13;3569612;40;20062;-64
2022/06/16 00:15:12;;;;;;;6.82;3.50;;;;;;;19.18;52.08;101620.13;3577085;40;20052;-64
2022/06/16 00:17:38;;;;;;;7.15;3.80;;;;;;;19.14;51.44;101616.81;3576739;40;20561;-64
2022/06/16 00:20:07;;;;;;;5.15;3.42;;;;;;;19.13;51.28;101614.22;3579600;40;20060;-64
2022/06/16 00:22:33;;;;;;;4.25;3.40;;;;;;;19.07;51.42;101626.50;3573258;40;20056;-64
2022/06/16 00:24:59;;;;;;;8.35;3.88;;;;;;;19.03;51.86;101625.06;3578601;40;20100;-64
2022/06/16 00:27:25;;;;;;;5.13;3.95;;;;;;;19.00;51.26;101631.63;3576348;40;20343;-64
2022/06/16 00:29:50;;;;;;;7.25;3.72;;;;;;;18.96;52.21;101637.44;3579307;40;20125;-64
2022/06/16 00:32:17;;;;;;;7.72;3.55;;;;;;;18.31;52.37;101524.84;3578046;40;20055;-64
2022/06/16 00:34:43;;;;;;;5.72;4.30;;;;;;;18.81;51.88;101620.56;3577329;40;20393;-64
2022/06/16 00:37:08;;;;;;;7.43;3.92;;;;;;;18.81;52.00;101625.09;3574193;40;20108;-64
2022/06/16 00:39:34;;;;;;;6.45;3.58;;;;;;;18.78;52.30;101632.56;3573671;40;20060;-65
2022/06/16 00:42:23;;;;;;;10.27;4.28;;;;;;;18.73;51.59;101629.34;3575587;40;20087;-64
2022/06/16 00:44:53;;;;;;;6.43;3.60;;;;;;;18.69;51.65;101632.44;3567855;40;20137;-64
2022/06/16 00:47:23;;;;;;;6.10;3.83;;;;;;;18.60;52.15;101633.19;3577518;40;20106;-63
2022/06/16 00:49:53;;;;;;;6.30;4.15;;;;;;;18.56;51.76;101638.03;3565385;40;20384;-64
2022/06/16 00:52:30;;;;;;;4.65;3.85;;;;;;;18.51;52.20;101629.38;3563840;40;20057;-63
2022/06/16 00:55:14;;;;;;;9.13;4.10;;;;;;;18.47;51.62;101642.38;3564420;40;20065;-63
2022/06/16 00:57:46;;;;;;;6.80;4.20;;;;;;;18.36;51.84;101649.69;3561163;40;20497;-64
2022/06/16 01:00:27;;;;;;;6.27;4.10;;;;;;;18.29;52.56;101652.03;3565610;40;20049;-64
2022/06/16 01:02:53;;;;;;;8.98;4.30;;;;;;;18.25;52.58;101648.69;3564830;40;20120;-64
2022/06/16 01:05:19;;;;;;;6.57;4.00;;;;;;;18.20;52.62;101650.91;3568316;40;20154;-64
2022/06/16 01:07:48;;;;;;;8.05;4.15;;;;;;;18.22;52.56;101651.69;3563118;40;20049;-64
2022/06/16 01:10:18;;;;;;;5.65;3.92;;;;;;;18.15;52.92;101647.72;3575254;40;20048;-63
2022/06/16 01:13:42;;;;;;;7.07;4.10;;;;;;;18.12;52.65;101656.13;3569989;40;20062;-64
2022/06/16 01:16:36;;;;;;;8.60;4.22;;;;;;;18.10;52.68;101649.94;3576417;40;20375;-64
2022/06/16 01:19:55;;;;;;;6.93;4.45;;;;;;;18.03;53.82;101656.88;3576698;40;20052;-64
2022/06/16 01:23:07;;;;;;;7.30;4.18;;;;;;;18.02;52.63;101657.88;3566523;40;20041;-64
2022/06/16 01:26:02;;;;;;;6.53;4.07;;;;;;;17.99;52.85;101652.69;3565602;40;20064;-64
2022/06/16 01:28:45;;;;;;;6.10;3.95;;;;;;;17.81;53.73;101636.81;3565481;40;20109;-64
2022/06/16 01:31:27;;;;;;;7.15;4.13;;;;;;;17.86;53.43;101660.94;3565247;40;20052;-63
2022/06/16 01:34:28;;;;;;;7.47;4.47;;;;;;;17.81;53.91;101666.72;3570522;40;20123;-63
2022/06/16 01:37:34;;;;;;;7.10;4.22;;;;;;;17.77;53.57;101673.41;3573403;40;20059;-63
2022/06/16 01:40:21;;;;;;;9.40;4.35;;;;;;;17.70;54.14;101674.84;3575114;40;20335;-63
2022/06/16 01:43:19;;;;;;;6.72;4.35;;;;;;;17.62;53.92;101675.44;3576267;40;20053;-63
2022/06/16 01:46:04;;;;;;;8.48;4.55;;;;;;;17.56;54.08;101662.31;3569194;40;20061;-63
2022/06/16 01:48:35;;;;;;;6.93;3.92;;;;;;;17.56;53.45;101665.03;3570804;40;20067;-62
2022/06/16 01:51:19;;;;;;;6.03;4.22;;;;;;;17.51;54.32;101671.84;3578687;40;20407;-63
2022/06/16 01:54:04;;;;;;;6.85;4.43;;;;;;;17.46;54.26;101671.31;3572173;40;20090;-63
2022/06/16 01:56:48;;;;;;;8.48;4.07;;;;;;;17.39;54.16;101669.06;3574302;40;20087;-62
2022/06/16 01:59:43;;;;;;;7.15;4.35;;;;;;;17.31;54.69;101663.34;3570551;40;20079;-62
2022/06/16 02:02:17;;;;;;;7.75;4.60;;;;;;;17.28;54.94;101677.19;3575798;40;20044;-63
2022/06/16 02:04:53;;;;;;;7.70;4.60;;;;;;;17.24;54.91;101680.25;3577717;40;20119;-63
2022/06/16 02:07:57;;;;;;;8.68;4.80;;;;;;;17.19;54.98;101680.63;3575289;40;20048;-63
2022/06/16 02:10:40;;;;;;;6.82;4.22;;;;;;;16.89;54.96;101638.47;3569781;40;20051;-63
2022/06/16 02:13:12;;;;;;;5.78;4.35;;;;;;;17.10;55.46;101667.72;3576636;40;20056;-63
2022/06/16 02:15:49;;;;;;;7.32;4.88;;;;;;;17.07;55.61;101662.53;3577615;40;20053;-63
2022/06/16 02:18:23;;;;;;;8.40;5.20;;;;;;;17.03;55.75;101666.44;3578283;40;20052;-63
2022/06/16 02:21:15;;;;;;;6.00;4.90;;;;;;;17.01;55.66;101668.44;3574472;40;20383;-62
2022/06/16 02:23:42;;;;;;;6.85;4.88;;;;;;;16.93;56.74;101672.56;3578515;40;20113;-63
2022/06/16 02:26:09;;;;;;;7.72;4.63;;;;;;;16.90;56.42;101661.06;3579022;40;20086;-63
2022/06/16 02:28:51;;;;;;;8.25;4.47;;;;;;;16.86;55.60;101682.16;3569806;40;20093;-63
2022/06/16 02:31:46;;;;;;;7.65;4.75;;;;;;;16.78;56.81;101675.56;3572142;40;20060;-63
2022/06/16 02:34:57;;;;;;;8.10;4.65;;;;;;;16.64;57.59;101682.00;3564921;40;20079;-63
2022/06/16 02:37:38;;;;;;;7.82;5.15;;;;;;;16.56;58.02;101698.84;3569979;40;20049;-63
2022/06/16 02:40:36;;;;;;;8.95;4.65;;;;;;;16.50;57.79;101714.72;3575186;40;20044;-63
2022/06/16 02:43:24;;;;;;;7.18;4.80;;;;;;;16.44;58.34;101721.47;3569516;40;20085;-63
2022/06/16 02:46:10;;;;;;;9.75;5.60;;;;;;;16.37;58.51;101715.59;3564704;40;20088;-63
2022/06/16 02:49:25;;;;;;;8.35;5.47;;;;;;;16.33;58.61;101727.63;3568951;40;20119;-62
2022/06/16 02:52:45;;;;;;;8.18;5.50;;;;;;;16.30;58.52;101727.88;3573025;40;20362;-63
2022/06/16 02:55:28;;;;;;;8.43;4.78;;;;;;;16.23;58.62;101727.44;3574697;40;20059;-62
2022/06/16 02:57:59;;;;;;;6.88;4.85;;;;;;;16.19;58.47;101719.63;3572165;40;20083;-63
2022/06/16 03:00:41;;;;;;;7.85;5.38;;;;;;;16.15;58.40;101719.00;3578327;40;20044;-63
2022/06/16 03:03:32;;;;;;;8.52;5.22;;;;;;;16.04;58.68;101724.28;3571262;40;20051;-64
2022/06/16 03:05:59;;;;;;;7.65;5.03;;;;;;;16.00;58.58;101731.78;3569127;40;20102;-63
2022/06/16 03:08:28;;;;;;;9.40;5.47;;;;;;;15.99;59.43;101719.22;3573594;40;20058;-63
2022/06/16 03:10:58;;;;;;;8.07;5.07;;;;;;;15.99;58.70;101724.63;3571828;40;20068;-63
2022/06/16 03:13:32;;;;;;;8.60;5.00;;;;;;;15.96;58.94;101727.56;3575275;40;20039;-63
2022/06/16 03:16:01;;;;;;;6.80;4.95;;;;;;;15.96;59.31;101730.25;3573918;40;20129;-64
2022/06/16 03:18:28;;;;;;;7.18;5.10;;;;;;;15.95;58.96;101728.53;3576891;40;20342;-63
2022/06/16 03:20:54;;;;;;;8.80;5.95;;;;;;;15.92;59.53;101717.00;3572087;40;20059;-63
2022/06/16 03:23:20;;;;;;;7.97;5.38;;;;;;;15.91;59.11;101732.41;3570633;40;20053;-64
2022/06/16 03:25:46;;;;;;;7.15;5.43;;;;;;;15.85;60.18;101713.88;3572137;40;20056;-63
2022/06/16 03:28:14;;;;;;;6.57;5.45;;;;;;;15.88;59.82;101726.34;3565425;40;20060;-64
2022/06/16 03:30:42;;;;;;;6.35;5.35;;;;;;;15.83;59.68;101713.13;3570384;40;20060;-63
2022/06/16 03:33:10;;;;;;;9.40;5.18;;;;;;;15.80;59.43;101724.19;3581385;40;20376;-64
2022/06/16 03:35:36;;;;;;;7.25;5.40;;;;;;;15.76;59.33;101712.69;3576550;40;20131;-64
2022/06/16 03:40:48;;;;;;;8.50;6.05;;;;;;;15.70;60.50;101729.38;3568279;40;20055;-67
2022/06/16 03:43:13;;;;;;;7.07;6.05;;;;;;;15.67;60.66;101737.72;3564727;40;20069;-64
2022/06/16 03:45:39;;;;;;;9.27;5.53;;;;;;;15.52;60.20;101720.63;3566966;40;20061;-66
2022/06/16 03:48:06;;;;;;;10.10;5.70;;;;;;;15.66;60.05;101744.06;3562986;40;20392;-67
2022/06/16 03:50:33;;;;;;;7.45;5.95;;;;;;;15.62;60.26;101757.94;3566918;40;20052;-66
2022/06/16 03:52:58;;;;;;;8.50;6.10;;;;;;;15.60;59.74;101754.44;3568398;40;20064;-67
2022/06/16 03:55:25;;;;;;;8.35;5.50;;;;;;;15.56;59.71;101760.09;3563865;40;20052;-66
2022/06/16 03:57:52;;;;;;;9.25;6.50;;;;;;;15.55;60.47;101762.91;3567381;40;20055;-67
2022/06/16 04:00:22;;;;;;;9.65;6.07;;;;;;;15.55;60.80;101771.91;3566542;40;20070;-67
2022/06/16 04:03:59;;;;;;;9.38;6.07;;;;;;;15.51;60.35;101767.69;3564349;40;20045;-66
2022/06/16 04:05:40;;;;;;;6.75;5.55;;;;;;;15.50;60.19;101781.31;3566924;40;20391;-66
2022/06/16 04:08:09;;;;;;;12.85;6.28;;;;;;;15.54;60.47;101778.31;3566152;40;20049;-66
2022/06/16 04:10:34;;;;;;;10.75;6.53;;;;;;;15.54;60.15;101772.88;3568171;40;20088;-67
2022/06/16 04:13:00;;;;;;;8.20;6.50;;;;;;;15.52;60.13;101780.25;3563727;40;20403;-66
2022/06/16 04:15:26;;;;;;;9.35;6.35;;;;;;;15.51;60.43;101788.50;3563995;40;20055;-67
2022/06/16 04:17:51;;;;;;;8.55;6.20;;;;;;;15.53;60.06;101781.97;3564231;40;20065;-66
2022/06/16 04:20:18;;;;;;;8.98;6.68;;;;;;;15.54;60.04;101780.16;3563796;40;20056;-67
2022/06/16 04:22:43;;;;;;;10.07;6.80;;;;;;;15.53;60.56;101786.53;3568138;40;20045;-67
2022/06/16 04:25:18;;;;;;;7.40;6.30;;;;;;;15.56;59.94;101792.59;3567312;40;20060;-66
2022/06/16 04:27:45;;;;;;;8.18;6.35;;;;;;;15.52;59.57;101785.66;3564417;40;20052;-66
2022/06/16 04:30:11;;;;;;;9.90;6.60;;;;;;;15.51;59.84;101789.34;3562687;40;20065;-67
2022/06/16 04:32:37;;;;;;;10.30;7.00;;;;;;;15.50;60.49;101793.00;3563569;40;20048;-66
2022/06/16 04:35:04;;;;;;;9.93;6.93;;;;;;;15.14;60.21;101730.47;3567602;40;20049;-66
2022/06/16 04:37:30;;;;;;;10.38;6.53;;;;;;;15.53;60.23;101800.94;3566519;40;20060;-67
2022/06/16 04:39:56;;;;;;;8.50;6.35;;;;;;;15.52;60.56;101795.63;3571288;40;20072;-67
2022/06/16 04:42:21;;;;;;;9.10;6.80;;;;;;;15.53;60.33;101803.66;3565614;40;20061;-67
2022/06/16 04:44:47;;;;;;;8.80;6.38;;;;;;;15.54;59.87;101810.84;3565533;40;20053;-67
2022/06/16 04:47:12;;;;;;;7.57;6.75;;;;;;;15.55;60.12;101812.56;3566951;40;20057;-66
2022/06/16 04:49:38;;;;;;;6.68;6.07;;;;;;;15.56;59.78;101819.69;3565460;40;20053;-67
2022/06/16 04:52:05;;;;;;;8.85;5.93;;;;;;;15.54;60.43;101816.25;3566674;40;20057;-67
2022/06/16 04:54:32;;;;;;;7.32;6.13;;;;;;;15.40;59.43;101781.06;3568590;40;20060;-67
2022/06/16 04:56:58;;;;;;;10.05;6.00;;;;;;;15.43;59.81;101785.41;3568527;40;20063;-66
2022/06/16 04:59:24;;;;;;;11.40;6.93;;;;;;;15.64;59.21;101812.94;3568025;40;20052;-67
2022/06/16 05:01:49;;;;;;;13.48;6.80;;;;;;;15.67;59.10;101821.75;3565959;40;20106;-66
2022/06/16 05:04:15;;;;;;;7.93;6.25;;;;;;;15.67;59.46;101831.72;3565372;40;20053;-67
2022/06/16 05:06:41;;;;;;;10.10;6.80;;;;;;;15.71;59.20;101833.25;3570110;40;20272;-66
2022/06/16 05:09:06;;;;;;;7.20;6.18;;;;;;;15.80;58.98;101831.75;3568844;40;20057;-67
2022/06/16 05:11:32;;;;;;;7.05;6.35;;;;;;;15.85;58.83;101835.88;3565026;40;20075;-67
2022/06/16 05:14:00;;;;;;;9.63;6.20;;;;;;;15.89;59.15;101842.84;3569935;40;20060;-67
2022/06/16 05:16:27;;;;;;;8.68;6.78;;;;;;;15.94;58.79;101839.81;3566367;40;20048;-66
2022/06/16 05:18:55;;;;;;;13.77;6.22;;;;;;;15.99;57.74;101849.38;3566077;40;20136;-67
2022/06/16 05:21:22;;;;;;;12.45;6.35;;;;;;;15.87;57.97;101814.09;3559271;40;20041;-66
2022/06/16 05:23:47;;;;;;;7.97;5.82;;;;;;;16.15;57.02;101851.06;3567220;40;20146;-65
2022/06/16 05:26:13;;;;;;;7.05;5.95;;;;;;;16.23;56.74;101845.94;3567862;40;20057;-65
2022/06/16 05:28:39;;;;;;;9.60;6.10;;;;;;;16.28;55.46;101848.34;3570312;40;20045;-65
2022/06/16 05:31:06;;;;;;;9.77;5.68;;;;;;;16.38;55.62;101849.44;3569590;40;20122;-66
2022/06/16 05:33:32;;;;;;;10.48;6.10;;;;;;;16.39;55.48;101859.31;3566740;40;20057;-66
2022/06/16 05:36:03;;;;;;;9.70;5.70;;;;;;;16.45;54.95;101851.59;3569184;40;20056;-65
2022/06/16 05:38:30;;;;;;;7.50;5.60;;;;;;;16.51;54.37;101854.88;3570984;40;20056;-66
2022/06/16 05:41:06;;;;;;;7.35;6.05;;;;;;;16.56;54.61;101866.28;3565550;40;20056;-66
2022/06/16 05:43:33;;;;;;;6.82;5.18;;;;;;;16.58;54.19;101864.31;3567078;40;20045;-66
2022/06/16 05:45:59;;;;;;;7.53;5.53;;;;;;;16.64;53.50;101869.31;3569890;40;20083;-65
2022/06/16 05:48:26;;;;;;;9.05;4.90;;;;;;;16.66;53.59;101870.09;3573036;40;20302;-67
2022/06/16 05:50:54;;;;;;;6.72;4.82;;;;;;;16.78;52.52;101880.13;3572992;40;20065;-65
2022/06/16 05:53:19;;;;;;;8.25;4.95;;;;;;;16.86;52.54;101885.84;3574652;40;20057;-67
2022/06/16 05:55:46;;;;;;;9.13;4.95;;;;;;;16.93;51.41;101873.56;3570379;40;20059;-66
2022/06/16 05:58:12;;;;;;;6.88;5.07;;;;;;;16.98;50.83;101877.81;3570845;40;20404;-66
2022/06/16 06:00:38;;;;;;;4.63;4.13;;;;;;;17.09;50.95;101875.16;3571586;40;20111;-64
2022/06/16 06:03:04;;;;;;;7.20;4.53;;;;;;;17.20;50.07;101880.69;3567443;40;20120;-64
2022/06/16 06:05:30;;;;;;;6.55;4.82;;;;;;;17.26;49.98;101869.38;3566443;40;20125;-64
2022/06/16 06:16:25;;;;;;;5.07;3.75;;;;;;;18.07;47.20;101893.22;3565897;40;20344;-65
2022/06/16 06:18:59;;;;;;;5.45;3.45;;;;;;;18.29;48.03;101892.44;3555694;40;20146;-64
2022/06/16 06:24:12;;;;;;;7.20;3.97;;;;;;;18.64;46.20;101902.44;3565629;40;20140;-64
2022/06/16 06:26:38;;;;;;;7.60;3.47;;;;;;;18.81;45.83;101892.97;3566804;40;20081;-63
2022/06/16 06:29:05;;;;;;;5.85;3.40;;;;;;;18.96;43.61;101901.75;3564976;40;20089;-64
2022/06/16 06:31:31;;;;;;;4.82;3.63;;;;;;;19.09;43.96;101899.78;3566049;40;20325;-64
2022/06/16 06:33:56;;;;;;;4.93;3.38;;;;;;;19.24;43.07;101901.25;3562378;40;20061;-64
2022/06/16 06:36:22;;;;;;;4.18;3.08;;;;;;;19.39;43.30;101906.47;3567656;40;20053;-64
2022/06/16 06:38:48;;;;;;;10.85;3.63;;;;;;;19.52;43.56;101907.19;3570991;40;20060;-64
2022/06/16 06:41:14;;;;;;;4.47;3.15;;;;;;;19.42;43.32;101852.53;3565087;40;20049;-64
2022/06/16 06:43:43;;;;;;;5.47;3.20;;;;;;;;;;3566170;40;20055;-64
2022/06/16 06:46:10;;;;;;;5.90;3.03;;;;;;;20.09;41.27;101903.31;3569725;40;20083;-64
2022/06/16 06:48:36;;;;;;;5.78;3.10;;;;;;;20.22;41.07;101905.00;3564768;40;20048;-64
2022/06/16 06:51:02;;;;;;;6.85;3.22;;;;;;;20.33;41.15;101910.41;3564512;40;20053;-64
2022/06/16 06:53:27;;;;;;;5.15;2.80;;;;;;;20.43;41.47;101911.38;3564831;40;20049;-64
2022/06/16 06:55:53;;;;;;;3.78;2.38;;;;;;;20.52;39.42;101916.06;3565935;40;20049;-64
2022/06/16 06:58:23;;;;;;;7.47;4.60;;;;;;;20.68;40.48;101914.72;3567535;40;20053;-64
2022/06/16 07:00:51;;;;;;;4.85;2.72;;;;;;;20.76;39.35;101902.13;3565211;40;20176;-64
2022/06/16 07:03:18;;;;;;;5.32;2.55;;;;;;;20.87;37.82;101925.78;3564969;40;20049;-63
2022/06/16 07:05:44;;;;;;;6.00;2.83;;;;;;;20.97;38.53;101932.16;3556003;40;20092;-64
2022/06/16 07:08:09;;;;;;;4.53;2.25;;;;;;;20.95;37.57;101923.22;3567371;40;20053;-64
2022/06/16 07:10:35;;;;;;;4.35;2.25;;;;;;;21.04;37.81;101930.63;3564497;40;20060;-64
2022/06/16 07:13:01;;;;;;;3.70;2.10;;;;;;;21.08;38.05;101934.78;3564711;40;20052;-64
2022/06/16 07:15:27;;;;;;;4.30;2.20;;;;;;;21.14;37.54;101932.53;3565354;40;20065;-63
2022/06/16 07:17:53;;;;;;;5.47;2.63;;;;;;;21.24;36.85;101944.38;3565336;40;20069;-64
2022/06/16 07:20:18;;;;;;;4.22;2.70;;;;;;;21.38;36.69;101963.19;3565014;40;20411;-63
2022/06/16 07:22:46;;;;;;;5.30;2.35;;;;;;;21.58;37.49;101950.44;3573188;40;20327;-64
2022/06/16 07:25:14;;;;;;;3.80;2.33;;;;;;;21.69;38.18;101955.81;3567439;40;20057;-64
2022/06/16 07:27:41;;;;;;;5.00;2.47;;;;;;;21.77;37.36;101953.22;3566725;40;20056;-64
2022/06/16 07:30:14;;;;;;;5.25;2.60;;;;;;;21.86;37.42;101961.63;3567747;40;20058;-64
2022/06/16 07:32:45;;;;;;;5.78;2.60;;;;;;;21.96;36.81;101966.09;3565623;40;20096;-64
2022/06/16 07:35:14;;;;;;;5.85;2.67;;;;;;;21.98;37.09;101971.44;3564897;40;20155;-64
2022/06/16 07:37:40;;;;;;;2.25;1.95;;;;;;;22.13;37.90;101980.09;3567379;40;20052;-64
2022/06/16 07:40:08;;;;;;;5.22;2.70;;;;;;;22.29;35.83;101985.03;3564664;40;20307;-63
2022/06/16 07:42:34;;;;;;;6.40;2.78;;;;;;;22.27;36.84;101984.34;3567888;40;20055;-63
2022/06/16 07:45:01;;;;;;;6.85;2.20;;;;;;;22.36;36.99;101992.56;3564886;40;20053;-63
2022/06/16 07:47:27;;;;;;;5.00;2.20;;;;;;;22.64;37.82;101984.47;3566141;40;20139;-63
2022/06/16 07:49:55;;;;;;;3.45;2.20;;;;;;;22.63;35.55;101977.25;3565775;40;20089;-63
2022/06/16 07:52:21;;;;;;;4.05;2.25;;;;;;;22.85;36.67;101987.91;3564187;40;20300;-63
2022/06/16 07:54:49;;;;;;;7.55;2.58;;;;;;;23.01;34.84;101987.34;3565838;40;20068;-64
2022/06/16 07:57:15;;;;;;;8.63;2.70;;;;;;;23.14;35.89;101998.00;3568467;40;20398;-63
2022/06/16 07:59:41;;;;;;;3.88;2.30;;;;;;;23.12;36.11;102000.00;3564896;40;20041;-63
2022/06/16 08:02:07;;;;;;;6.93;2.58;;;;;;;23.36;35.75;102002.25;3564442;40;20055;-64
2022/06/16 08:04:33;;;;;;;3.80;2.30;;;;;;;23.44;35.79;102002.38;3564957;40;20395;-64
2022/06/16 08:07:00;;;;;;;3.92;2.17;;;;;;;23.51;35.62;102008.13;3568095;40;20150;-64
2022/06/16 08:09:29;;;;;;;5.72;2.80;;;;;;;23.57;33.83;102004.78;3570273;40;20089;-64
2022/06/16 08:12:04;;;;;;;5.57;2.40;;;;;;;23.45;36.05;102003.25;3565097;40;20049;-63
2022/06/16 08:14:37;;;;;;;4.15;2.40;;;;;;;23.61;35.64;102011.69;3564602;40;20061;-64
2022/06/16 08:17:27;;;;;;;3.25;2.50;;;;;;;23.87;35.99;102003.63;3564693;40;20049;-64
2022/06/16 08:19:54;;;;;;;6.05;2.58;;;;;;;24.10;34.29;102009.56;3567270;40;20399;-64
2022/06/16 08:22:21;;;;;;;3.85;2.35;;;;;;;24.25;33.06;102010.75;3567270;40;20103;-64
2022/06/16 08:24:47;;;;;;;3.58;2.15;;;;;;;24.26;33.03;102015.25;3567435;40;20072;-64
2022/06/16 08:27:16;;;;;;;4.75;2.17;;;;;;;24.48;33.67;102010.34;3564958;40;20061;-64
2022/06/16 08:29:45;;;;;;;4.68;2.80;;;;;;;24.37;32.45;101972.06;3564844;40;20049;-64
2022/06/16 08:32:15;;;;;;;3.58;2.03;;;;;;;24.72;32.71;101994.06;3555969;40;20127;-65
2022/06/16 08:34:40;;;;;;;2.95;2.17;;;;;;;24.90;32.34;102002.28;3564702;40;20057;-65
2022/06/16 08:37:06;;;;;;;4.65;2.10;;;;;;;24.85;32.44;101996.41;3565114;40;20161;-65
2022/06/16 08:39:32;;;;;;;4.57;2.05;;;;;;;24.75;32.14;102004.75;3565302;40;20045;-64
2022/06/16 08:42:31;;;;;;;6.50;2.20;;;;;;;24.77;33.58;102005.47;3568799;40;20147;-64
2022/06/16 08:45:38;;;;;;;4.88;2.22;;;;;;;24.96;32.41;102001.66;3567429;40;20064;-64
2022/06/16 08:48:26;;;;;;;3.05;2.22;;;;;;;24.98;31.66;101996.84;3562148;40;20049;-64
2022/06/16 08:51:07;;;;;;;3.80;2.10;;;;;;;25.08;32.21;102006.88;3564577;40;20057;-64
2022/06/16 08:54:01;;;;;;;3.28;1.88;;;;;;;25.28;35.14;101991.03;3565499;40;20049;-64
2022/06/16 08:56:54;;;;;;;;;;;;;;;25.60;30.90;102013.25;3565378;40;20045;-64
2022/06/16 08:59:53;;;;;;;9.18;2.15;;;;;;;25.85;30.42;102017.03;3565301;40;20238;-64
2022/06/16 09:02:44;;;;;;;2.83;2.03;;;;;;;26.03;30.38;102024.31;3563956;40;20053;-64
2022/06/16 09:05:53;;;;;;;5.65;2.15;;;;;;;26.05;30.42;102034.13;3570915;40;20060;-64
2022/06/16 09:09:00;;;;;;;4.35;2.08;;;;;;;26.12;31.67;102034.31;3546830;40;20049;-65
2022/06/16 09:11:38;;;;;;;4.15;2.17;;;;;;;26.16;32.23;102031.06;3563348;40;20060;-65
2022/06/16 09:18:12;;;;;;;6.07;2.78;;;;;;;26.20;30.37;102036.22;3556033;40;20122;-64
2022/06/16 09:21:06;;;;;;;6.18;2.53;;;;;;;26.32;30.08;102034.88;3567656;40;20053;-65
2022/06/16 09:23:58;;;;;;;;;;;;;;;26.51;30.52;102039.25;3571196;40;20061;-65
2022/06/16 09:26:54;;;;;;;3.60;2.10;;;;;;;26.42;29.26;102037.47;3563834;40;19948;-65
2022/06/16 09:29:32;;;;;;;3.90;2.45;;;;;;;26.48;31.73;102040.47;3564360;40;20072;-64
2022/06/16 09:32:34;;;;;;;3.47;2.15;;;;;;;26.59;29.13;102037.38;3565975;40;20060;-64
2022/06/16 09:35:25;;;;;;;4.93;2.50;;;;;;;26.63;30.26;102036.00;3567386;40;20060;-64
2022/06/16 09:38:05;;;;;;;5.15;2.50;;;;;;;26.57;30.33;102022.88;3568090;40;20057;-64
2022/06/16 09:44:30;;;;;;;7.15;2.40;;;;;;;26.98;29.70;102038.59;3565673;40;20089;-64
2022/06/16 09:47:09;;;;;;;4.25;2.30;;;;;;;27.29;30.70;102045.16;3565081;40;20065;-64
2022/06/16 09:49:47;;;;;;;4.63;2.10;;;;;;;27.08;30.65;102020.84;3556973;40;20053;-64
2022/06/16 09:52:46;;;;;;;6.57;2.70;;;;;;;27.30;30.10;102046.00;3567914;40;20104;-64
2022/06/16 09:55:28;;;;;;;8.10;2.65;;;;;;;27.57;29.24;102043.91;3570485;40;20401;-64
2022/06/16 09:58:08;;;;;;;6.60;3.17;;;;;;;27.16;31.75;102039.31;3568762;40;20049;-64
2022/06/16 10:00:34;;;;;;;4.82;2.80;;;;;;;26.98;31.72;102042.22;3565206;40;20130;-65
2022/06/16 10:03:17;;;;;;;5.50;2.70;;;;;;;27.19;30.35;102044.47;3566324;40;20084;-64
2022/06/16 10:06:31;;;;;;;7.60;3.05;;;;;;;27.19;29.52;102049.16;3568791;40;20098;-64
2022/06/16 10:09:05;;;;;;;6.75;3.10;;;;;;;27.28;30.95;102042.59;3569098;40;20057;-65
2022/06/16 10:11:51;;;;;;;4.50;2.70;;;;;;;27.45;30.96;102044.25;3565645;40;20045;-64
2022/06/16 10:14:33;;;;;;;7.47;2.65;;;;;;;27.53;30.46;102038.72;3565452;40;20265;-65
2022/06/16 10:17:04;;;;;;;3.47;2.13;;;;;;;27.64;29.81;102031.94;3567716;40;20381;-64
2022/06/16 10:19:38;;;;;;;4.07;2.60;;;;;;;27.76;29.35;102040.72;3571581;40;20056;-65
2022/06/16 10:22:05;;;;;;;5.25;2.75;;;;;;;27.75;31.65;102045.38;3568929;40;20048;-65
2022/06/16 10:25:13;;;;;;;6.13;2.92;;;;;;;27.79;29.64;102051.44;3572143;40;20388;-65
2022/06/16 10:27:50;;;;;;;5.45;2.50;;;;;;;27.98;29.31;102052.91;3572249;40;20057;-64
2022/06/16 10:30:32;;;;;;;5.25;2.88;;;;;;;27.94;29.67;102059.81;3568232;40;20056;-65
2022/06/16 10:33:22;;;;;;;4.22;2.80;;;;;;;28.04;31.59;102062.38;3569649;40;20053;-65
2022/06/16 10:36:06;;;;;;;7.35;3.15;;;;;;;28.10;30.55;102061.66;3567547;40;20076;-65
2022/06/16 10:38:41;;;;;;;5.75;2.70;;;;;;;28.20;29.08;102062.31;3568377;40;20053;-65
2022/06/16 10:41:29;;;;;;;5.85;2.90;;;;;;;28.43;27.99;102054.09;3569080;40;20060;-64
2022/06/16 10:44:00;;;;;;;4.10;2.50;;;;;;;28.64;28.07;102056.16;3566852;40;20057;-64
2022/06/16 10:46:34;;;;;;;5.88;2.60;;;;;;;28.73;28.88;102059.75;3571137;40;20315;-64
2022/06/16 10:49:13;;;;;;;6.15;2.75;;;;;;;28.61;30.37;102057.44;3571500;40;20053;-66
2022/06/16 10:51:53;;;;;;;5.47;3.05;;;;;;;28.63;30.22;102051.69;3574929;40;20411;-65
2022/06/16 10:54:33;;;;;;;4.28;3.00;;;;;;;28.62;28.47;102048.06;3569876;40;20363;-65
2022/06/16 10:57:23;;;;;;;7.60;2.50;;;;;;;28.78;31.85;102051.75;3571074;40;20119;-65
2022/06/16 10:59:56;;;;;;;5.63;2.75;;;;;;;28.97;27.74;102047.63;3573633;40;20059;-65
2022/06/16 11:02:31;;;;;;;4.65;2.63;;;;;;;29.12;29.13;102045.78;3573489;40;20398;-65
2022/06/16 11:05:02;;;;;;;5.85;3.47;;;;;;;28.93;29.13;102036.06;3566634;40;20060;-65
2022/06/16 11:07:41;;;;;;;5.80;2.80;;;;;;;29.20;27.77;102044.84;3571740;40;20060;-66
2022/06/16 11:10:32;;;;;;;5.30;2.63;;;;;;;29.41;28.14;102049.66;3566533;40;20048;-65
2022/06/16 11:12:58;;;;;;;4.78;2.90;;;;;;;29.21;27.66;102044.66;3573968;40;20056;-65
2022/06/16 11:15:34;;;;;;;3.53;2.70;;;;;;;29.43;29.94;102044.75;3575809;40;20071;-65
2022/06/16 11:18:06;;;;;;;3.60;2.30;;;;;;;29.56;27.10;102044.97;3569051;40;20146;-65
2022/06/16 11:20:32;;;;;;;5.85;2.67;;;;;;;29.47;29.07;102041.44;3571477;40;20052;-65
2022/06/16 11:22:59;;;;;;;6.53;3.85;;;;;;;29.60;27.35;102038.00;3568076;40;20057;-65
2022/06/16 11:25:36;;;;;;;4.57;2.78;;;;;;;29.86;29.92;102037.53;3572077;40;20278;-65
2022/06/16 11:28:10;;;;;;;3.83;2.63;;;;;;;29.76;26.77;102036.97;3566854;40;20399;-64
2022/06/16 11:30:55;;;;;;;5.20;2.60;;;;;;;29.83;27.53;102036.00;3569979;40;20049;-65
2022/06/16 11:36:34;;;;;;;5.80;2.70;;;;;;;30.23;26.84;102035.69;3564630;40;20628;-66
2022/06/16 11:39:13;;;;;;;5.28;2.40;;;;;;;30.16;27.61;102029.16;3566980;40;20049;-66
2022/06/16 11:41:46;;;;;;;4.85;2.30;;;;;;;30.16;27.13;102027.25;3571102;40;20040;-66
2022/06/16 11:45:07;;;;;;;3.22;2.40;;;;;;;30.23;26.07;102031.00;3564275;40;20482;-66
2022/06/16 11:48:11;;;;;;;4.53;2.80;;;;;;;30.32;26.62;102037.28;3565019;40;20053;-66
2022/06/16 11:51:20;;;;;;;8.07;2.20;;;;;;;30.36;26.96;102040.53;3547412;40;20053;-66
2022/06/16 11:54:34;;;;;;;5.03;2.60;;;;;;;30.41;25.72;102032.47;3565856;40;20080;-66
2022/06/16 11:57:21;;;;;;;4.75;2.60;;;;;;;30.57;28.72;102032.19;3565568;40;20280;-66
2022/06/16 12:00:21;;;;;;;3.40;2.40;;;;;;;30.66;28.16;102041.25;3565922;40;20060;-66
2022/06/16 12:03:12;;;;;;;4.32;2.72;;;;;;;30.78;27.48;102049.97;3568707;40;20059;-66
2022/06/16 12:06:06;;;;;;;4.60;2.53;;;;;;;30.97;25.43;102049.28;3572495;40;20060;-66
2022/06/16 12:08:59;;;;;;;5.57;2.80;;;;;;;30.99;26.47;102052.72;3572590;40;20052;-66
2022/06/16 12:12:02;;;;;;;3.47;2.53;;;;;;;31.09;26.04;102038.50;3571454;40;20388;-66
2022/06/16 12:15:02;;;;;;;4.20;3.00;;;;;;;31.08;27.53;102036.75;3571681;40;20063;-65
2022/06/16 12:17:53;;;;;;;4.82;2.17;;;;;;;31.31;26.94;102044.84;3571464;40;20055;-66
2022/06/16 12:20:54;;;;;;;3.63;2.35;;;;;;;31.30;25.89;102043.13;3573394;40;20085;-65
2022/06/16 12:23:42;;;;;;;5.20;2.38;;;;;;;30.92;25.50;102040.69;3571321;40;20053;-65
2022/06/16 12:26:38;;;;;;;3.25;1.90;;;;;;;31.11;27.01;102053.88;3570125;40;20051;-66
2022/06/16 12:29:21;;;;;;;5.15;2.55;;;;;;;31.62;25.63;102064.78;3570522;40;20126;-64
2022/06/16 12:32:14;;;;;;;3.63;2.38;;;;;;;31.44;25.73;102081.09;3570933;40;20475;-64